Time;durP1;ratioP1;P1;durP2;ratioP2;P2;SDS_P1;SDS_P2;PMS_P1;PMS_P2;Temp;Humidity;BMP_temperature;BMP_pressure;BME280_temperature;BME280_humidity;BME280_pressure;Samples;Min_cycle;Max_cycle;Signal;HPM_P1;HPM_P2
2022/04/30 00:01:03;;;;;;;8.60;7.13;;;;;;;;;;5052086;28;20056;-74
2022/04/30 00:03:30;;;;;;;9.68;6.90;;;;;;;;;;5050997;28;20063;-73
2022/04/30 00:05:57;;;;;;;8.68;6.72;;;;;;;;;;5052110;28;20084;-73
2022/04/30 00:08:24;;;;;;;8.73;6.68;;;;;;;;;;5052285;28;20052;-73
2022/04/30 00:10:53;;;;;;;8.30;7.20;;;;;;;;;;5052303;28;20053;-73
2022/04/30 00:13:20;;;;;;;7.72;7.00;;;;;;;;;;5050869;28;20063;-74
2022/04/30 00:15:47;;;;;;;8.32;7.32;;;;;;;;;;5050995;28;20044;-73
2022/04/30 00:18:13;;;;;;;8.43;7.20;;;;;;;;;;5034410;28;20049;-73
2022/04/30 00:20:45;;;;;;;9.18;7.45;;;;;;;;;;5051576;28;20087;-73
2022/04/30 00:23:19;;;;;;;10.20;7.75;;;;;;;;;;5051264;28;20059;-73
2022/04/30 00:25:55;;;;;;;9.38;7.60;;;;;;;;;;5052169;28;20156;-74
2022/04/30 00:28:25;;;;;;;10.48;7.45;;;;;;;;;;5034663;28;20075;-73
2022/04/30 00:30:53;;;;;;;9.15;7.43;;;;;;;;;;5034276;28;20053;-73
2022/04/30 00:33:20;;;;;;;9.98;7.75;;;;;;;;;;5049905;28;20060;-72
2022/04/30 00:35:48;;;;;;;9.13;7.88;;;;;;;;;;5050701;28;20095;-73
2022/04/30 00:38:15;;;;;;;8.55;7.68;;;;;;;;;;5052528;28;20045;-73
2022/04/30 00:40:43;;;;;;;8.70;7.85;;;;;;;;;;5051629;28;20048;-75
2022/04/30 00:43:09;;;;;;;9.48;7.47;;;;;;;;;;5050844;28;20048;-73
2022/04/30 00:45:36;;;;;;;10.82;7.97;;;;;;;;;;5052072;28;20055;-73
2022/04/30 00:48:03;;;;;;;10.15;8.00;;;;;;;;;;5052210;28;20442;-74
2022/04/30 00:50:30;;;;;;;8.52;7.63;;;;;;;;;;5050843;28;20053;-73
2022/04/30 00:52:57;;;;;;;13.10;8.68;;;;;;;;;;5034375;28;20057;-73
2022/04/30 00:55:26;;;;;;;8.98;8.07;;;;;;;;;;5052261;28;20067;-73
2022/04/30 00:57:54;;;;;;;9.43;8.38;;;;;;;;;;5034647;28;20045;-74
2022/04/30 01:00:21;;;;;;;14.02;9.13;;;;;;;;;;5034373;28;20055;-73
2022/04/30 01:02:48;;;;;;;11.75;9.30;;;;;;;;;;5051600;28;20055;-73
2022/04/30 01:05:14;;;;;;;13.15;9.60;;;;;;;;;;5051688;28;20049;-73
2022/04/30 01:07:41;;;;;;;9.32;8.43;;;;;;;;;;5051983;28;20453;-73
2022/04/30 01:10:08;;;;;;;11.52;8.73;;;;;;;;;;5050480;28;20527;-74
2022/04/30 01:12:36;;;;;;;10.65;9.32;;;;;;;;;;5049970;28;20045;-73
2022/04/30 01:15:05;;;;;;;9.82;8.82;;;;;;;;;;5034251;28;20410;-73
2022/04/30 01:17:32;;;;;;;11.68;9.05;;;;;;;;;;5050464;28;20048;-74
2022/04/30 01:19:58;;;;;;;10.90;9.50;;;;;;;;;;5051653;28;20053;-72
2022/04/30 01:22:30;;;;;;;13.90;10.02;;;;;;;;;;5049840;28;20500;-74
2022/04/30 01:24:58;;;;;;;13.15;8.90;;;;;;;;;;5050319;28;20052;-74
2022/04/30 01:27:26;;;;;;;10.63;9.50;;;;;;;;;;5033590;28;20052;-73
2022/04/30 01:29:54;;;;;;;11.27;9.50;;;;;;;;;;5050243;28;20503;-73
2022/04/30 01:38:05;;;;;;;11.02;9.80;;;;;;;;;;5051246;28;20041;-73
2022/04/30 01:40:32;;;;;;;15.63;11.27;;;;;;;;;;5051435;28;20057;-73
2022/04/30 01:43:00;;;;;;;14.02;10.63;;;;;;;;;;5033523;28;20045;-73
2022/04/30 01:45:30;;;;;;;13.70;10.98;;;;;;;;;;5054826;28;20103;-74
2022/04/30 01:47:59;;;;;;;20.77;12.95;;;;;;;;;;5033762;28;20049;-73
2022/04/30 01:50:26;;;;;;;18.02;12.90;;;;;;;;;;5034103;28;20045;-73
2022/04/30 01:52:53;;;;;;;20.42;13.77;;;;;;;;;;5034571;28;20045;-73
2022/04/30 01:55:19;;;;;;;17.48;13.15;;;;;;;;;;5035076;28;20057;-73
2022/04/30 01:57:46;;;;;;;20.80;14.98;;;;;;;;;;5052646;28;20045;-74
2022/04/30 02:00:14;;;;;;;21.92;13.68;;;;;;;;;;5055046;28;20049;-73
2022/04/30 02:02:44;;;;;;;23.23;15.05;;;;;;;;;;5053182;28;20045;-73
2022/04/30 02:05:13;;;;;;;22.83;14.52;;;;;;;;;;5056025;28;20136;-73
2022/04/30 02:07:49;;;;;;;23.38;13.80;;;;;;;;;;5054569;28;20415;-73
2022/04/30 02:10:18;;;;;;;20.80;15.32;;;;;;;;;;5053810;28;20064;-73
2022/04/30 02:12:44;;;;;;;19.67;14.52;;;;;;;;;;5053479;28;20060;-73
2022/04/30 02:15:15;;;;;;;21.00;14.98;;;;;;;;;;5053281;28;20049;-73
2022/04/30 02:17:42;;;;;;;23.73;16.15;;;;;;;;;;5038418;28;20381;-73
2022/04/30 02:22:56;;;;;;;23.23;15.43;;;;;;;;;;5053172;28;20056;-74
2022/04/30 02:25:23;;;;;;;22.95;16.17;;;;;;;;;;5036961;28;20048;-73
2022/04/30 02:27:52;;;;;;;23.15;15.43;;;;;;;;;;5053135;28;20088;-73
2022/04/30 02:30:21;;;;;;;22.83;14.98;;;;;;;;;;5054663;28;20122;-73
2022/04/30 02:32:56;;;;;;;26.30;15.60;;;;;;;;;;5053938;28;20045;-73
2022/04/30 02:35:28;;;;;;;26.08;16.38;;;;;;;;;;5054183;28;20399;-73
2022/04/30 02:37:57;;;;;;;25.27;17.58;;;;;;;;;;5053863;28;20132;-73
2022/04/30 02:40:25;;;;;;;31.27;16.00;;;;;;;;;;5052923;28;20049;-74
2022/04/30 02:42:52;;;;;;;25.77;16.23;;;;;;;;;;5052487;28;20057;-74
2022/04/30 02:45:21;;;;;;;25.35;16.02;;;;;;;;;;5053037;28;20057;-73
2022/04/30 02:47:56;;;;;;;26.55;16.15;;;;;;;;;;5035942;28;20049;-74
2022/04/30 02:50:23;;;;;;;28.85;17.50;;;;;;;;;;5054144;28;20056;-74
2022/04/30 02:52:55;;;;;;;29.58;17.17;;;;;;;;;;5044271;23;20053;-68
2022/04/30 02:55:22;;;;;;;24.88;16.55;;;;;;;;;;5013262;28;20050;-68
2022/04/30 03:00:41;;;;;;;24.90;17.05;;;;;;;;;;5014017;28;20054;-67
2022/04/30 03:03:12;;;;;;;31.08;17.58;;;;;;;;;;5013574;28;20053;-68
2022/04/30 03:05:41;;;;;;;26.67;16.67;;;;;;;;;;5013766;28;20057;-67
2022/04/30 03:08:12;;;;;;;26.58;17.27;;;;;;;;;;5013639;28;20045;-67
2022/04/30 03:10:40;;;;;;;27.30;17.15;;;;;;;;;;5028587;28;20500;-67
2022/04/30 03:13:07;;;;;;;25.30;17.15;;;;;;;;;;5013103;28;20060;-68
2022/04/30 03:15:34;;;;;;;27.10;18.17;;;;;;;;;;5013215;28;20151;-67
2022/04/30 03:23:33;;;;;;;26.63;17.20;;;;;;;;;;5026201;28;20528;-67
2022/04/30 03:26:00;;;;;;;30.15;17.67;;;;;;;;;;5013126;28;20054;-68
2022/04/30 03:28:26;;;;;;;29.77;19.38;;;;;;;;;;5013310;28;20050;-68
2022/04/30 03:30:53;;;;;;;28.77;19.20;;;;;;;;;;5013239;28;20060;-68
2022/04/30 03:33:20;;;;;;;30.42;20.35;;;;;;;;;;5013347;28;20053;-68
2022/04/30 03:35:46;;;;;;;26.42;19.45;;;;;;;;;;5013218;28;20053;-68
2022/04/30 03:38:13;;;;;;;29.48;20.15;;;;;;;;;;5013114;28;20104;-67
2022/04/30 03:40:40;;;;;;;29.83;18.70;;;;;;;;;;5012866;28;20479;-68
2022/04/30 03:43:07;;;;;;;34.15;21.13;;;;;;;;;;5012923;28;20057;-68
2022/04/30 03:45:34;;;;;;;33.95;19.80;;;;;;;;;;5012773;28;20464;-68
2022/04/30 03:48:01;;;;;;;31.50;20.02;;;;;;;;;;5012845;28;20057;-67
2022/04/30 03:50:27;;;;;;;33.30;21.40;;;;;;;;;;5012984;28;20049;-68
2022/04/30 03:52:54;;;;;;;33.10;20.40;;;;;;;;;;5012465;28;20050;-67
2022/04/30 03:55:21;;;;;;;32.72;20.65;;;;;;;;;;5002936;28;20421;-68
2022/04/30 03:57:48;;;;;;;35.05;21.17;;;;;;;;;;4993240;28;20057;-68
2022/04/30 04:00:15;;;;;;;41.83;22.45;;;;;;;;;;4993245;28;20058;-68
2022/04/30 04:02:43;;;;;;;35.25;21.48;;;;;;;;;;4992814;28;20112;-68
2022/04/30 04:05:12;;;;;;;34.63;21.98;;;;;;;;;;5007866;28;20056;-68
2022/04/30 04:07:40;;;;;;;38.00;22.17;;;;;;;;;;4993104;28;20043;-68
2022/04/30 04:10:07;;;;;;;38.13;22.80;;;;;;;;;;4992711;28;20065;-67
2022/04/30 04:12:34;;;;;;;30.30;21.27;;;;;;;;;;4992795;28;20449;-67
2022/04/30 04:17:45;;;;;;;38.15;21.85;;;;;;;;;;5007453;28;20042;-68
2022/04/30 04:20:17;;;;;;;39.55;23.98;;;;;;;;;;4992625;28;20497;-68
2022/04/30 04:22:45;;;;;;;36.03;23.83;;;;;;;;;;4992819;28;20440;-68
2022/04/30 04:27:58;;;;;;;34.03;24.05;;;;;;;;;;4992671;28;20046;-68
2022/04/30 04:30:27;;;;;;;38.03;24.85;;;;;;;;;;4992477;28;20046;-68
2022/04/30 04:32:55;;;;;;;45.38;24.13;;;;;;;;;;4992443;28;20061;-68
2022/04/30 04:35:22;;;;;;;38.15;24.00;;;;;;;;;;4992892;28;20050;-68
2022/04/30 04:37:49;;;;;;;36.42;24.02;;;;;;;;;;5007532;28;20052;-68
2022/04/30 04:40:17;;;;;;;41.03;24.88;;;;;;;;;;4992538;28;20512;-68
2022/04/30 04:42:45;;;;;;;35.50;23.10;;;;;;;;;;4992338;28;20050;-68
2022/04/30 04:45:12;;;;;;;32.53;22.10;;;;;;;;;;4992377;28;20050;-68
2022/04/30 04:47:42;;;;;;;36.25;23.63;;;;;;;;;;4992595;28;20127;-68
2022/04/30 04:50:14;;;;;;;41.08;23.35;;;;;;;;;;4992544;28;20068;-68
2022/04/30 04:52:41;;;;;;;38.92;23.05;;;;;;;;;;4991940;28;20058;-68
2022/04/30 04:55:08;;;;;;;36.58;22.77;;;;;;;;;;5007450;28;20046;-68
2022/04/30 04:57:35;;;;;;;34.88;22.65;;;;;;;;;;4992738;28;20064;-68
2022/04/30 05:00:07;;;;;;;38.13;21.40;;;;;;;;;;4992595;28;20567;-68
2022/04/30 05:02:37;;;;;;;35.87;22.17;;;;;;;;;;4992259;28;20064;-68
2022/04/30 05:05:05;;;;;;;30.25;21.25;;;;;;;;;;4992312;28;20100;-68
2022/04/30 05:07:31;;;;;;;30.98;20.75;;;;;;;;;;4992215;28;20050;-68
2022/04/30 05:09:58;;;;;;;35.70;22.35;;;;;;;;;;4992193;28;20074;-68
2022/04/30 05:12:25;;;;;;;34.25;22.88;;;;;;;;;;4996892;28;20065;-68
2022/04/30 05:14:53;;;;;;;35.40;22.98;;;;;;;;;;5011942;28;20052;-68
2022/04/30 05:17:20;;;;;;;36.75;23.98;;;;;;;;;;5011682;28;20501;-68
2022/04/30 05:19:47;;;;;;;39.70;24.58;;;;;;;;;;5014341;28;20257;-68
2022/04/30 05:22:14;;;;;;;38.10;24.73;;;;;;;;;;5014792;28;20050;-68
2022/04/30 05:24:41;;;;;;;40.88;25.98;;;;;;;;;;5015468;28;20054;-68
2022/04/30 05:27:08;;;;;;;35.97;23.60;;;;;;;;;;5001770;28;20129;-68
2022/04/30 05:29:35;;;;;;;39.22;25.80;;;;;;;;;;4995911;28;20047;-68
2022/04/30 05:32:03;;;;;;;38.03;24.45;;;;;;;;;;4999325;28;20076;-69
2022/04/30 05:34:30;;;;;;;39.35;24.58;;;;;;;;;;5012498;28;20088;-67
2022/04/30 05:36:56;;;;;;;41.72;24.67;;;;;;;;;;5010527;28;20049;-68
2022/04/30 05:39:23;;;;;;;40.95;24.05;;;;;;;;;;5015004;28;20057;-68
2022/04/30 05:41:50;;;;;;;43.20;24.75;;;;;;;;;;5013255;28;20587;-68
2022/04/30 05:44:16;;;;;;;40.15;24.17;;;;;;;;;;5006121;28;20050;-68
2022/04/30 05:46:43;;;;;;;42.00;23.83;;;;;;;;;;5005251;28;20409;-68
2022/04/30 05:49:10;;;;;;;37.58;23.35;;;;;;;;;;5014973;28;20053;-68
2022/04/30 05:51:36;;;;;;;36.22;24.08;;;;;;;;;;5013132;28;20057;-68
2022/04/30 05:54:03;;;;;;;37.65;22.73;;;;;;;;;;5012429;28;20061;-67
2022/04/30 05:56:30;;;;;;;41.25;24.92;;;;;;;;;;5013127;28;20058;-68
2022/04/30 05:58:56;;;;;;;40.08;25.50;;;;;;;;;;5012958;28;20049;-68
2022/04/30 06:01:23;;;;;;;37.92;24.67;;;;;;;;;;5007388;28;20099;-67
2022/04/30 06:03:51;;;;;;;45.28;26.23;;;;;;;;;;4996807;28;20062;-67
2022/04/30 06:06:21;;;;;;;45.70;26.25;;;;;;;;;;4995655;28;20053;-67
2022/04/30 06:08:48;;;;;;;41.63;26.05;;;;;;;;;;5012682;28;20050;-68
2022/04/30 06:11:14;;;;;;;41.75;25.60;;;;;;;;;;5012401;28;20046;-68
2022/04/30 06:13:41;;;;;;;46.47;26.02;;;;;;;;;;5012803;28;20057;-67
2022/04/30 06:16:08;;;;;;;38.60;24.98;;;;;;;;;;5004985;28;20050;-67
2022/04/30 06:18:34;;;;;;;40.25;24.55;;;;;;;;;;5003335;28;20077;-67
2022/04/30 06:21:23;;;;;;;39.72;25.00;;;;;;;;;;4993993;28;20085;-67
2022/04/30 06:23:50;;;;;;;39.47;23.48;;;;;;;;;;5005001;28;20505;-67
2022/04/30 06:26:17;;;;;;;41.03;24.33;;;;;;;;;;4992931;28;20426;-67
2022/04/30 06:28:43;;;;;;;37.17;24.48;;;;;;;;;;4992543;28;20054;-68
2022/04/30 06:31:10;;;;;;;42.50;24.42;;;;;;;;;;4991982;28;20069;-67
2022/04/30 06:33:37;;;;;;;34.40;23.58;;;;;;;;;;5003181;28;20053;-67
2022/04/30 06:36:03;;;;;;;35.70;24.55;;;;;;;;;;5012577;28;20049;-67
2022/04/30 06:38:30;;;;;;;38.88;24.88;;;;;;;;;;5008725;28;20103;-67
2022/04/30 06:40:58;;;;;;;39.58;24.73;;;;;;;;;;5000966;28;20057;-67
2022/04/30 06:43:24;;;;;;;40.72;25.92;;;;;;;;;;5011670;28;20065;-67
2022/04/30 06:45:51;;;;;;;38.25;24.42;;;;;;;;;;4997033;28;20054;-67
2022/04/30 06:48:18;;;;;;;36.22;24.48;;;;;;;;;;4992555;28;20053;-68
2022/04/30 06:50:45;;;;;;;40.97;24.42;;;;;;;;;;4992419;28;20046;-66
2022/04/30 06:58:50;;;;;;;40.05;25.40;;;;;;;;;;5010665;28;20042;-66
2022/04/30 07:01:38;;;;;;;35.05;23.63;;;;;;;;;;5011884;28;20060;-67
2022/04/30 07:04:06;;;;;;;38.00;24.58;;;;;;;;;;5002907;28;20089;-69
2022/04/30 07:06:33;;;;;;;36.85;23.67;;;;;;;;;;4992131;28;20054;-67
2022/04/30 07:09:05;;;;;;;32.45;22.83;;;;;;;;;;4991855;28;20055;-70
2022/04/30 07:11:32;;;;;;;34.00;23.40;;;;;;;;;;4991404;28;20070;-66
2022/04/30 07:13:59;;;;;;;32.97;22.17;;;;;;;;;;4999244;28;20057;-67
2022/04/30 07:16:26;;;;;;;29.45;21.30;;;;;;;;;;5011515;28;20045;-68
2022/04/30 07:18:52;;;;;;;34.33;22.20;;;;;;;;;;5011448;28;20050;-70
2022/04/30 07:21:19;;;;;;;33.90;22.88;;;;;;;;;;4988245;28;20054;-75
2022/04/30 07:23:46;;;;;;;32.20;20.88;;;;;;;;;;5000633;28;20058;-74
2022/04/30 07:26:13;;;;;;;33.67;23.77;;;;;;;;;;5002123;28;20070;-76
2022/04/30 07:28:39;;;;;;;31.02;21.88;;;;;;;;;;5000810;28;20053;-71
2022/04/30 07:31:08;;;;;;;31.95;22.23;;;;;;;;;;5005430;28;20045;-69
2022/04/30 07:33:35;;;;;;;33.58;22.30;;;;;;;;;;5008199;28;20052;-73
2022/04/30 07:36:03;;;;;;;36.03;23.20;;;;;;;;;;5002859;28;20050;-77
2022/04/30 07:38:30;;;;;;;34.55;22.80;;;;;;;;;;5003180;28;20046;-69
2022/04/30 07:40:57;;;;;;;36.22;24.02;;;;;;;;;;5004093;28;20466;-69
2022/04/30 07:43:23;;;;;;;32.33;21.90;;;;;;;;;;4998811;28;20046;-69
2022/04/30 07:45:50;;;;;;;32.30;22.33;;;;;;;;;;5002759;28;20046;-70
2022/04/30 07:48:17;;;;;;;28.73;20.35;;;;;;;;;;5000421;28;20076;-70
2022/04/30 07:50:45;;;;;;;28.20;20.23;;;;;;;;;;5004763;28;20062;-69
2022/04/30 07:53:14;;;;;;;28.75;19.77;;;;;;;;;;4999552;28;20054;-70
2022/04/30 07:55:42;;;;;;;28.40;20.30;;;;;;;;;;4999930;28;20060;-70
2022/04/30 07:58:09;;;;;;;34.88;21.25;;;;;;;;;;4998027;28;20501;-72
2022/04/30 08:00:36;;;;;;;32.20;21.25;;;;;;;;;;4999637;28;20524;-70
2022/04/30 08:03:03;;;;;;;31.25;22.30;;;;;;;;;;4997920;28;20046;-70
2022/04/30 08:05:31;;;;;;;31.08;22.60;;;;;;;;;;5001299;28;20048;-70
2022/04/30 08:07:57;;;;;;;32.63;22.10;;;;;;;;;;5000875;28;20061;-70
2022/04/30 08:10:24;;;;;;;32.65;22.48;;;;;;;;;;4999082;28;20049;-70
2022/04/30 08:12:55;;;;;;;32.13;22.38;;;;;;;;;;4997794;28;20053;-70
2022/04/30 08:15:23;;;;;;;30.08;20.88;;;;;;;;;;4998550;28;20051;-70
2022/04/30 08:17:50;;;;;;;29.83;21.83;;;;;;;;;;5007682;28;20050;-70
2022/04/30 08:20:16;;;;;;;34.22;20.90;;;;;;;;;;4997678;28;20046;-70
2022/04/30 08:22:43;;;;;;;28.42;19.80;;;;;;;;;;4999657;28;20050;-70
2022/04/30 08:25:10;;;;;;;29.65;21.23;;;;;;;;;;4997999;28;20230;-70
2022/04/30 08:27:36;;;;;;;27.58;20.58;;;;;;;;;;4999160;28;20512;-70
2022/04/30 08:30:04;;;;;;;28.48;20.63;;;;;;;;;;4997223;28;20061;-70
2022/04/30 08:32:31;;;;;;;32.95;22.75;;;;;;;;;;4999028;28;20058;-69
2022/04/30 08:34:59;;;;;;;25.63;19.38;;;;;;;;;;5000322;28;20051;-70
2022/04/30 08:37:26;;;;;;;25.45;20.27;;;;;;;;;;5002485;28;20401;-73
2022/04/30 08:39:53;;;;;;;23.58;17.75;;;;;;;;;;4999428;28;20046;-69
2022/04/30 08:42:20;;;;;;;26.27;20.95;;;;;;;;;;4996712;28;20048;-73
2022/04/30 08:44:47;;;;;;;23.13;18.15;;;;;;;;;;4978564;28;20493;-76
2022/04/30 08:47:14;;;;;;;22.30;17.58;;;;;;;;;;5001709;28;20042;-73
2022/04/30 08:49:42;;;;;;;23.38;17.60;;;;;;;;;;4998275;28;20057;-67
2022/04/30 08:52:10;;;;;;;25.38;18.55;;;;;;;;;;4995994;28;20053;-67
2022/04/30 08:54:36;;;;;;;23.55;18.48;;;;;;;;;;5004223;28;20050;-66
2022/04/30 08:57:03;;;;;;;24.25;19.85;;;;;;;;;;5019578;28;20493;-70
2022/04/30 08:59:30;;;;;;;25.55;19.63;;;;;;;;;;5008745;28;20046;-68
2022/04/30 09:01:58;;;;;;;25.33;19.88;;;;;;;;;;5002310;28;20050;-71
2022/04/30 09:04:26;;;;;;;26.13;18.58;;;;;;;;;;5004059;28;20140;-68
2022/04/30 09:06:55;;;;;;;24.35;18.92;;;;;;;;;;5002964;28;20128;-67
2022/04/30 09:09:29;;;;;;;23.70;19.42;;;;;;;;;;5001528;28;20065;-67
2022/04/30 09:12:06;;;;;;;25.23;19.70;;;;;;;;;;5002512;28;20056;-67
2022/04/30 09:14:33;;;;;;;25.73;19.52;;;;;;;;;;5001273;28;20058;-68
2022/04/30 09:17:11;;;;;;;24.60;18.30;;;;;;;;;;5011629;28;20056;-67
2022/04/30 09:19:51;;;;;;;25.98;18.88;;;;;;;;;;5002064;28;20500;-67
2022/04/30 09:22:38;;;;;;;25.08;19.65;;;;;;;;;;4998731;28;21025;-72
2022/04/30 09:25:32;;;;;;;29.10;18.70;;;;;;;;;;5002242;28;20080;-73
2022/04/30 09:28:03;;;;;;;24.02;19.20;;;;;;;;;;4990216;28;20099;-74
2022/04/30 09:30:42;;;;;;;25.33;19.73;;;;;;;;;;4978008;28;20054;-77
2022/04/30 09:33:10;;;;;;;26.40;19.17;;;;;;;;;;5016757;28;20081;-69
2022/04/30 09:38:25;;;;;;;19.52;16.17;;;;;;;;;;5005300;28;20053;-69
2022/04/30 09:40:59;;;;;;;16.83;13.55;;;;;;;;;;5011057;28;20386;-69
2022/04/30 09:43:30;;;;;;;16.23;12.98;;;;;;;;;;5001559;28;20073;-70
2022/04/30 09:46:07;;;;;;;14.48;12.77;;;;;;;;;;5006063;28;20057;-70
2022/04/30 09:54:07;;;;;;;10.20;8.23;;;;;;;;;;5028046;28;20444;-69
2022/04/30 09:56:39;;;;;;;9.75;8.43;;;;;;;;;;5029468;28;20049;-68
2022/04/30 09:59:11;;;;;;;11.67;9.20;;;;;;;;;;5032587;28;20426;-67
2022/04/30 10:01:44;;;;;;;10.30;8.57;;;;;;;;;;5028562;28;20691;-68
2022/04/30 10:04:13;;;;;;;11.07;9.48;;;;;;;;;;5022616;28;20111;-69
2022/04/30 10:06:50;;;;;;;10.50;8.77;;;;;;;;;;5015405;28;20050;-69
2022/04/30 10:09:25;;;;;;;12.07;8.98;;;;;;;;;;5020992;28;20046;-67
2022/04/30 10:12:07;;;;;;;11.70;9.90;;;;;;;;;;5023021;28;20489;-68
2022/04/30 10:14:33;;;;;;;11.98;10.77;;;;;;;;;;5019119;28;20049;-69
2022/04/30 10:17:13;;;;;;;12.73;11.23;;;;;;;;;;5031958;28;20046;-67
2022/04/30 10:19:41;;;;;;;14.52;11.63;;;;;;;;;;5032974;28;20071;-69
2022/04/30 10:22:12;;;;;;;14.02;10.43;;;;;;;;;;5012386;28;20088;-69
2022/04/30 10:24:47;;;;;;;12.20;10.80;;;;;;;;;;5022924;28;20420;-68
2022/04/30 10:27:15;;;;;;;12.60;10.00;;;;;;;;;;5019722;28;20057;-68
2022/04/30 10:29:58;;;;;;;11.75;10.32;;;;;;;;;;5024799;28;20046;-69
2022/04/30 10:32:35;;;;;;;;;;;;;;;;;;5013139;28;20057;-68
2022/04/30 10:35:03;;;;;;;14.57;12.00;;;;;;;;;;5023155;28;20541;-68
2022/04/30 10:37:35;;;;;;;17.25;13.88;;;;;;;;;;5018482;28;20056;-68
2022/04/30 10:40:11;;;;;;;16.05;14.40;;;;;;;;;;5020897;28;20048;-68
2022/04/30 10:42:43;;;;;;;17.25;12.30;;;;;;;;;;5017930;28;20394;-68
2022/04/30 10:45:15;;;;;;;9.40;8.05;;;;;;;;;;5008228;28;20046;-69
2022/04/30 10:47:55;;;;;;;8.47;7.13;;;;;;;;;;5018686;28;20144;-68
2022/04/30 10:50:22;;;;;;;9.82;8.93;;;;;;;;;;5017649;28;20315;-69
2022/04/30 10:52:50;;;;;;;10.23;9.20;;;;;;;;;;5012782;28;20053;-69
2022/04/30 10:55:18;;;;;;;10.57;9.48;;;;;;;;;;5021792;28;20053;-69
2022/04/30 10:57:45;;;;;;;11.40;9.27;;;;;;;;;;5024696;28;20441;-69
2022/04/30 11:00:14;;;;;;;8.63;7.72;;;;;;;;;;5020020;28;20046;-69
2022/04/30 11:02:47;;;;;;;8.68;7.78;;;;;;;;;;5010661;28;20080;-69
2022/04/30 11:05:24;;;;;;;10.30;6.90;;;;;;;;;;5019695;28;20054;-72
2022/04/30 11:07:51;;;;;;;7.30;6.65;;;;;;;;;;5025227;28;20049;-72
2022/04/30 11:10:18;;;;;;;6.53;5.82;;;;;;;;;;5022320;28;20049;-72
2022/04/30 11:12:45;;;;;;;5.90;5.30;;;;;;;;;;5009989;28;20061;-71
2022/04/30 11:15:14;;;;;;;6.13;5.53;;;;;;;;;;4997932;28;20073;-71
2022/04/30 11:17:44;;;;;;;6.25;5.65;;;;;;;;;;5020039;28;20045;-71
2022/04/30 11:20:23;;;;;;;5.20;4.70;;;;;;;;;;5007771;28;20500;-73
2022/04/30 11:22:53;;;;;;;5.75;4.72;;;;;;;;;;5021470;28;20050;-71
2022/04/30 11:25:20;;;;;;;4.90;4.43;;;;;;;;;;5025092;28;20050;-70
2022/04/30 11:27:47;;;;;;;4.43;4.03;;;;;;;;;;5025178;28;20046;-68
2022/04/30 11:30:14;;;;;;;4.78;4.20;;;;;;;;;;5020419;28;20041;-70
2022/04/30 11:32:47;;;;;;;4.88;4.47;;;;;;;;;;5018761;28;20057;-69
2022/04/30 11:35:16;;;;;;;4.50;4.10;;;;;;;;;;5017592;28;20077;-69
2022/04/30 11:37:43;;;;;;;5.50;4.63;;;;;;;;;;5024645;28;20049;-70
2022/04/30 11:40:11;;;;;;;5.07;4.57;;;;;;;;;;5023560;28;20041;-68
2022/04/30 11:42:38;;;;;;;5.25;4.60;;;;;;;;;;5017826;28;20053;-66
2022/04/30 11:45:05;;;;;;;5.25;4.85;;;;;;;;;;5011317;28;20065;-67
2022/04/30 11:47:31;;;;;;;4.72;4.35;;;;;;;;;;5022680;28;20425;-66
2022/04/30 11:50:03;;;;;;;5.05;4.55;;;;;;;;;;5024157;28;20054;-67
2022/04/30 11:52:30;;;;;;;4.95;4.45;;;;;;;;;;5018338;28;20081;-66
2022/04/30 11:54:59;;;;;;;5.47;4.70;;;;;;;;;;5024719;28;20515;-66
2022/04/30 11:57:26;;;;;;;5.07;4.68;;;;;;;;;;5022329;28;20099;-66
2022/04/30 11:59:55;;;;;;;4.93;4.53;;;;;;;;;;5024137;28;20045;-66
2022/04/30 12:02:28;;;;;;;4.70;4.30;;;;;;;;;;5021130;28;20112;-66
2022/04/30 12:05:03;;;;;;;5.43;3.95;;;;;;;;;;5021516;28;20359;-67
2022/04/30 12:07:41;;;;;;;3.80;3.45;;;;;;;;;;5006779;28;20505;-67
2022/04/30 12:10:23;;;;;;;3.95;3.58;;;;;;;;;;5020658;28;20149;-67
2022/04/30 12:12:52;;;;;;;3.75;3.45;;;;;;;;;;5021807;28;20052;-66
2022/04/30 12:15:28;;;;;;;3.97;3.47;;;;;;;;;;5017696;28;20131;-68
2022/04/30 12:27:03;;;;;;;3.20;2.90;;;;;;;;;;5021783;28;20057;-66
2022/04/30 12:29:32;;;;;;;5.03;3.92;;;;;;;;;;5022129;28;20046;-66
2022/04/30 12:32:06;;;;;;;4.40;4.00;;;;;;;;;;5022550;28;20049;-66
2022/04/30 12:34:40;;;;;;;6.63;4.72;;;;;;;;;;5024213;28;20056;-66
2022/04/30 12:37:08;;;;;;;4.22;3.83;;;;;;;;;;5018917;28;20488;-66
2022/04/30 12:39:35;;;;;;;2.72;2.53;;;;;;;;;;5021290;28;20058;-66
2022/04/30 12:42:03;;;;;;;3.10;2.80;;;;;;;;;;5022073;28;20123;-66
2022/04/30 12:44:29;;;;;;;4.03;2.88;;;;;;;;;;5017797;28;20062;-67
2022/04/30 12:46:56;;;;;;;3.63;2.97;;;;;;;;;;5014636;28;20052;-66
2022/04/30 12:49:23;;;;;;;3.60;3.30;;;;;;;;;;5017879;28;20611;-66
2022/04/30 12:51:50;;;;;;;3.38;3.08;;;;;;;;;;5022690;28;20489;-66
2022/04/30 12:54:17;;;;;;;3.50;3.20;;;;;;;;;;5022586;28;20045;-66
2022/04/30 12:56:45;;;;;;;3.13;2.75;;;;;;;;;;5022952;28;20050;-66
2022/04/30 12:59:12;;;;;;;5.32;3.15;;;;;;;;;;5021932;28;20049;-66
2022/04/30 13:01:39;;;;;;;3.60;3.30;;;;;;;;;;5024552;28;20556;-67
2022/04/30 13:04:07;;;;;;;3.65;3.35;;;;;;;;;;5019274;28;20081;-67
2022/04/30 13:06:35;;;;;;;4.25;3.85;;;;;;;;;;5006117;28;20054;-67
2022/04/30 13:14:32;;;;;;;5.22;4.75;;;;;;;;;;5020398;28;20049;-66
2022/04/30 13:17:00;;;;;;;5.22;4.72;;;;;;;;;;5023333;28;20054;-66
2022/04/30 13:19:27;;;;;;;5.10;4.70;;;;;;;;;;5018956;28;20595;-67
2022/04/30 13:21:53;;;;;;;6.38;4.88;;;;;;;;;;5022788;28;20053;-66
2022/04/30 13:24:20;;;;;;;9.02;7.32;;;;;;;;;;5021534;28;20050;-66
2022/04/30 13:26:47;;;;;;;10.13;8.02;;;;;;;;;;5024461;28;20061;-66
2022/04/30 13:29:14;;;;;;;8.88;7.93;;;;;;;;;;5022017;28;20054;-66
2022/04/30 13:31:41;;;;;;;8.93;7.75;;;;;;;;;;5016556;28;20099;-66
2022/04/30 13:34:08;;;;;;;9.07;8.18;;;;;;;;;;5021113;28;20049;-66
2022/04/30 13:36:35;;;;;;;9.65;8.20;;;;;;;;;;5022395;28;20496;-66
2022/04/30 13:39:03;;;;;;;12.13;9.13;;;;;;;;;;5019004;28;20050;-66
2022/04/30 13:41:30;;;;;;;11.43;9.35;;;;;;;;;;5026754;28;20037;-66
2022/04/30 13:43:57;;;;;;;11.13;9.95;;;;;;;;;;5025977;28;20050;-66
2022/04/30 13:46:24;;;;;;;11.77;9.98;;;;;;;;;;5025836;28;20050;-65
2022/04/30 13:48:50;;;;;;;10.13;9.05;;;;;;;;;;5012267;28;20046;-65
2022/04/30 13:51:17;;;;;;;12.10;10.48;;;;;;;;;;5022501;28;20050;-66
2022/04/30 13:53:44;;;;;;;13.68;10.93;;;;;;;;;;5013452;28;20054;-65
2022/04/30 13:56:11;;;;;;;12.27;10.35;;;;;;;;;;5013908;28;20057;-66
2022/04/30 13:58:37;;;;;;;10.60;9.50;;;;;;;;;;5012661;28;20049;-66
2022/04/30 14:01:12;;;;;;;12.63;8.70;;;;;;;;;;5014414;28;20089;-66
2022/04/30 14:03:40;;;;;;;11.15;9.48;;;;;;;;;;5014768;28;20050;-67
2022/04/30 14:06:07;;;;;;;9.65;8.75;;;;;;;;;;5014896;28;20054;-66
2022/04/30 14:08:35;;;;;;;9.43;8.48;;;;;;;;;;5012031;28;20057;-66
2022/04/30 14:11:02;;;;;;;11.60;8.90;;;;;;;;;;5030001;28;20049;-68
2022/04/30 14:16:15;;;;;;;9.80;8.80;;;;;;;;;;5013440;28;20510;-65
2022/04/30 14:18:41;;;;;;;9.95;8.95;;;;;;;;;;4996948;28;20069;-67
2022/04/30 14:21:09;;;;;;;11.30;9.13;;;;;;;;;;4994788;28;20054;-66
2022/04/30 14:23:36;;;;;;;11.15;8.63;;;;;;;;;;4994716;28;20529;-66
2022/04/30 14:26:04;;;;;;;12.18;8.95;;;;;;;;;;4995080;28;20081;-65
2022/04/30 14:28:31;;;;;;;11.55;9.68;;;;;;;;;;4994369;28;20050;-66
2022/04/30 14:31:00;;;;;;;11.35;9.65;;;;;;;;;;4994717;28;20046;-65
2022/04/30 14:33:27;;;;;;;12.80;9.77;;;;;;;;;;4994656;28;20085;-66
2022/04/30 14:35:54;;;;;;;10.27;9.07;;;;;;;;;;4994613;28;20053;-66
2022/04/30 14:38:20;;;;;;;12.25;9.02;;;;;;;;;;4994641;28;20054;-67
2022/04/30 14:40:47;;;;;;;12.35;9.93;;;;;;;;;;5004130;28;20045;-67
2022/04/30 14:43:14;;;;;;;9.90;8.90;;;;;;;;;;5013814;28;20512;-65
2022/04/30 14:45:43;;;;;;;10.30;9.25;;;;;;;;;;5014325;28;20046;-67
2022/04/30 14:48:11;;;;;;;9.70;8.70;;;;;;;;;;5002082;28;20424;-66
2022/04/30 14:50:38;;;;;;;9.55;8.35;;;;;;;;;;4993740;28;20046;-66
2022/04/30 14:53:05;;;;;;;10.25;9.25;;;;;;;;;;4993909;28;20077;-67
2022/04/30 14:55:32;;;;;;;10.77;9.65;;;;;;;;;;4999132;28;20050;-67
2022/04/30 14:57:59;;;;;;;10.07;9.07;;;;;;;;;;5014147;28;20056;-67
2022/04/30 15:00:26;;;;;;;8.88;7.90;;;;;;;;;;5014092;28;20104;-68
2022/04/30 15:02:52;;;;;;;8.98;8.15;;;;;;;;;;5013580;28;20080;-67
2022/04/30 15:05:19;;;;;;;8.25;7.45;;;;;;;;;;5005168;28;20081;-67
2022/04/30 15:07:47;;;;;;;9.75;8.43;;;;;;;;;;5015736;28;20128;-66
2022/04/30 15:10:14;;;;;;;8.45;7.47;;;;;;;;;;5020582;28;20133;-66
2022/04/30 15:12:41;;;;;;;9.50;8.50;;;;;;;;;;5012949;28;20064;-68
2022/04/30 15:15:13;;;;;;;10.75;9.20;;;;;;;;;;5015161;28;20425;-66
2022/04/30 15:17:40;;;;;;;9.80;8.80;;;;;;;;;;5021371;28;20425;-67
2022/04/30 15:20:07;;;;;;;9.10;8.20;;;;;;;;;;5023625;28;20045;-66
2022/04/30 15:22:34;;;;;;;10.05;7.85;;;;;;;;;;5021382;28;20547;-67
2022/04/30 15:25:02;;;;;;;9.43;8.52;;;;;;;;;;5023306;28;20054;-68
2022/04/30 15:27:29;;;;;;;8.98;8.07;;;;;;;;;;5025156;28;20579;-67